sensor_id;sensor_type;location;lat;lon;timestamp;temperature;humidity
65637;DHT22;52327;42.622;23.316;2023-05-03T00:01:53;13.34;47.89
65637;DHT22;52327;42.622;23.316;2023-05-03T00:04:50;13.32;47.15
65637;DHT22;52327;42.622;23.316;2023-05-03T00:07:17;13.24;47.37
65637;DHT22;52327;42.622;23.316;2023-05-03T00:09:49;13.21;47.18
65637;DHT22;52327;42.622;23.316;2023-05-03T00:12:29;13.19;47.30
65637;DHT22;52327;42.622;23.316;2023-05-03T00:14:55;13.19;47.18
65637;DHT22;52327;42.622;23.316;2023-05-03T00:17:29;13.19;47.10
65637;DHT22;52327;42.622;23.316;2023-05-03T00:20:04;13.14;46.73
65637;DHT22;52327;42.622;23.316;2023-05-03T00:26:00;12.91;47.35
65637;DHT22;52327;42.622;23.316;2023-05-03T00:28:26;12.88;47.62
65637;DHT22;52327;42.622;23.316;2023-05-03T00:30:56;12.94;47.27
65637;DHT22;52327;42.622;23.316;2023-05-03T00:33:38;12.90;47.23
65637;DHT22;52327;42.622;23.316;2023-05-03T00:36:23;12.96;47.07
65637;DHT22;52327;42.622;23.316;2023-05-03T00:38:49;12.91;47.04
65637;DHT22;52327;42.622;23.316;2023-05-03T00:41:17;12.79;46.87
65637;DHT22;52327;42.622;23.316;2023-05-03T00:43:43;12.61;46.97
65637;DHT22;52327;42.622;23.316;2023-05-03T00:46:09;12.45;47.34
65637;DHT22;52327;42.622;23.316;2023-05-03T00:48:38;12.50;47.22
65637;DHT22;52327;42.622;23.316;2023-05-03T00:51:09;12.57;46.66
65637;DHT22;52327;42.622;23.316;2023-05-03T00:53:45;12.49;47.17
65637;DHT22;52327;42.622;23.316;2023-05-03T00:56:13;12.53;46.87
65637;DHT22;52327;42.622;23.316;2023-05-03T00:58:45;12.59;46.58
65637;DHT22;52327;42.622;23.316;2023-05-03T01:01:13;12.50;47.00
65637;DHT22;52327;42.622;23.316;2023-05-03T01:03:39;12.47;47.70
65637;DHT22;52327;42.622;23.316;2023-05-03T01:09:18;12.45;48.24
65637;DHT22;52327;42.622;23.316;2023-05-03T01:12:02;12.49;47.91
65637;DHT22;52327;42.622;23.316;2023-05-03T01:14:58;12.53;47.10
65637;DHT22;52327;42.622;23.316;2023-05-03T01:17:30;12.50;47.26
65637;DHT22;52327;42.622;23.316;2023-05-03T01:20:04;12.37;47.21
65637;DHT22;52327;42.622;23.316;2023-05-03T01:23:03;12.37;46.88
65637;DHT22;52327;42.622;23.316;2023-05-03T01:25:29;12.24;47.37
65637;DHT22;52327;42.622;23.316;2023-05-03T01:27:58;12.15;47.34
65637;DHT22;52327;42.622;23.316;2023-05-03T01:30:33;12.16;47.07
65637;DHT22;52327;42.622;23.316;2023-05-03T01:33:32;12.12;47.36
65637;DHT22;52327;42.622;23.316;2023-05-03T01:36:33;11.96;48.21
65637;DHT22;52327;42.622;23.316;2023-05-03T01:39:07;11.86;48.43
65637;DHT22;52327;42.622;23.316;2023-05-03T01:41:47;11.79;48.17
65637;DHT22;52327;42.622;23.316;2023-05-03T01:44:25;11.79;48.33
65637;DHT22;52327;42.622;23.316;2023-05-03T01:46:56;11.82;48.58
65637;DHT22;52327;42.622;23.316;2023-05-03T01:49:24;11.86;48.28
65637;DHT22;52327;42.622;23.316;2023-05-03T01:51:53;11.85;48.35
65637;DHT22;52327;42.622;23.316;2023-05-03T01:54:18;11.89;48.32
65637;DHT22;52327;42.622;23.316;2023-05-03T01:56:49;11.85;47.99
65637;DHT22;52327;42.622;23.316;2023-05-03T01:59:44;11.84;48.07
65637;DHT22;52327;42.622;23.316;2023-05-03T02:02:10;11.75;48.45
65637;DHT22;52327;42.622;23.316;2023-05-03T02:04:35;11.75;49.18
65637;DHT22;52327;42.622;23.316;2023-05-03T02:07:02;11.71;50.03
65637;DHT22;52327;42.622;23.316;2023-05-03T02:09:30;11.73;50.05
65637;DHT22;52327;42.622;23.316;2023-05-03T02:11:56;11.70;50.29
65637;DHT22;52327;42.622;23.316;2023-05-03T02:14:22;11.74;50.69
65637;DHT22;52327;42.622;23.316;2023-05-03T02:16:56;11.78;51.01
65637;DHT22;52327;42.622;23.316;2023-05-03T02:19:21;11.82;50.87
65637;DHT22;52327;42.622;23.316;2023-05-03T02:21:49;11.84;50.75
65637;DHT22;52327;42.622;23.316;2023-05-03T02:24:18;11.86;50.61
65637;DHT22;52327;42.622;23.316;2023-05-03T02:26:44;11.86;50.58
65637;DHT22;52327;42.622;23.316;2023-05-03T02:29:10;11.86;50.29
65637;DHT22;52327;42.622;23.316;2023-05-03T02:31:43;11.82;49.22
65637;DHT22;52327;42.622;23.316;2023-05-03T02:34:09;11.75;48.88
65637;DHT22;52327;42.622;23.316;2023-05-03T02:36:34;11.60;48.55
65637;DHT22;52327;42.622;23.316;2023-05-03T02:39:00;11.47;49.24
65637;DHT22;52327;42.622;23.316;2023-05-03T02:41:49;11.41;49.57
65637;DHT22;52327;42.622;23.316;2023-05-03T02:44:17;11.40;49.84
65637;DHT22;52327;42.622;23.316;2023-05-03T02:46:49;11.48;50.28
65637;DHT22;52327;42.622;23.316;2023-05-03T02:49:15;11.48;49.86
65637;DHT22;52327;42.622;23.316;2023-05-03T02:51:46;11.47;49.90
65637;DHT22;52327;42.622;23.316;2023-05-03T02:54:26;11.38;49.90
65637;DHT22;52327;42.622;23.316;2023-05-03T02:56:54;11.37;50.27
65637;DHT22;52327;42.622;23.316;2023-05-03T02:59:25;11.34;50.30
65637;DHT22;52327;42.622;23.316;2023-05-03T03:01:51;11.38;50.23
65637;DHT22;52327;42.622;23.316;2023-05-03T03:04:21;11.43;50.04
65637;DHT22;52327;42.622;23.316;2023-05-03T03:06:54;11.47;49.99
65637;DHT22;52327;42.622;23.316;2023-05-03T03:09:23;11.63;50.01
65637;DHT22;52327;42.622;23.316;2023-05-03T03:11:51;11.71;49.81
65637;DHT22;52327;42.622;23.316;2023-05-03T03:14:29;11.78;49.58
65637;DHT22;52327;42.622;23.316;2023-05-03T03:17:01;11.78;50.02
65637;DHT22;52327;42.622;23.316;2023-05-03T03:19:39;11.64;50.30
65637;DHT22;52327;42.622;23.316;2023-05-03T03:22:15;11.47;50.89
65637;DHT22;52327;42.622;23.316;2023-05-03T03:24:46;11.27;51.43
65637;DHT22;52327;42.622;23.316;2023-05-03T03:27:17;11.26;51.53
65637;DHT22;52327;42.622;23.316;2023-05-03T03:29:54;11.14;51.37
65637;DHT22;52327;42.622;23.316;2023-05-03T03:32:23;11.12;51.65
65637;DHT22;52327;42.622;23.316;2023-05-03T03:34:54;11.22;52.20
65637;DHT22;52327;42.622;23.316;2023-05-03T03:37:23;11.40;52.52
65637;DHT22;52327;42.622;23.316;2023-05-03T03:39:51;11.58;51.78
65637;DHT22;52327;42.622;23.316;2023-05-03T03:42:41;11.51;50.11
65637;DHT22;52327;42.622;23.316;2023-05-03T03:45:25;11.17;50.97
65637;DHT22;52327;42.622;23.316;2023-05-03T03:47:53;11.33;50.91
65637;DHT22;52327;42.622;23.316;2023-05-03T03:50:27;11.23;50.99
65637;DHT22;52327;42.622;23.316;2023-05-03T03:52:55;11.22;51.40
65637;DHT22;52327;42.622;23.316;2023-05-03T03:55:25;11.48;51.46
65637;DHT22;52327;42.622;23.316;2023-05-03T03:58:02;11.74;51.45
65637;DHT22;52327;42.622;23.316;2023-05-03T04:00:34;11.86;50.22
65637;DHT22;52327;42.622;23.316;2023-05-03T04:03:05;11.86;51.09
65637;DHT22;52327;42.622;23.316;2023-05-03T04:05:31;11.99;51.14
65637;DHT22;52327;42.622;23.316;2023-05-03T04:08:16;12.05;50.84
65637;DHT22;52327;42.622;23.316;2023-05-03T04:10:50;12.18;50.64
65637;DHT22;52327;42.622;23.316;2023-05-03T04:16:09;12.22;49.93
65637;DHT22;52327;42.622;23.316;2023-05-03T04:18:38;12.25;48.89
65637;DHT22;52327;42.622;23.316;2023-05-03T04:24:21;12.12;49.48
65637;DHT22;52327;42.622;23.316;2023-05-03T04:26:47;12.12;49.08
65637;DHT22;52327;42.622;23.316;2023-05-03T04:29:21;12.12;48.75
65637;DHT22;52327;42.622;23.316;2023-05-03T04:31:47;12.12;48.80
65637;DHT22;52327;42.622;23.316;2023-05-03T04:34:12;12.02;48.60
65637;DHT22;52327;42.622;23.316;2023-05-03T04:36:40;12.02;48.33
65637;DHT22;52327;42.622;23.316;2023-05-03T04:39:06;11.99;48.73
65637;DHT22;52327;42.622;23.316;2023-05-03T04:41:32;12.04;48.45
65637;DHT22;52327;42.622;23.316;2023-05-03T04:43:58;12.06;48.54
65637;DHT22;52327;42.622;23.316;2023-05-03T04:46:24;12.11;48.60
65637;DHT22;52327;42.622;23.316;2023-05-03T04:48:49;12.08;48.63
65637;DHT22;52327;42.622;23.316;2023-05-03T04:51:15;12.18;48.54
65637;DHT22;52327;42.622;23.316;2023-05-03T04:53:40;12.21;48.75
65637;DHT22;52327;42.622;23.316;2023-05-03T04:56:06;12.22;49.07
65637;DHT22;52327;42.622;23.316;2023-05-03T04:58:31;12.09;50.88
65637;DHT22;52327;42.622;23.316;2023-05-03T05:00:57;12.12;51.77
65637;DHT22;52327;42.622;23.316;2023-05-03T05:03:23;12.08;51.90
65637;DHT22;52327;42.622;23.316;2023-05-03T05:05:48;11.96;53.92
65637;DHT22;52327;42.622;23.316;2023-05-03T05:08:14;11.91;54.47
65637;DHT22;52327;42.622;23.316;2023-05-03T05:10:40;11.91;54.90
65637;DHT22;52327;42.622;23.316;2023-05-03T05:13:06;11.79;55.13
65637;DHT22;52327;42.622;23.316;2023-05-03T05:15:31;11.84;55.74
65637;DHT22;52327;42.622;23.316;2023-05-03T05:17:57;11.98;56.23
65637;DHT22;52327;42.622;23.316;2023-05-03T05:20:22;11.95;57.62
65637;DHT22;52327;42.622;23.316;2023-05-03T05:22:47;11.84;56.50
65637;DHT22;52327;42.622;23.316;2023-05-03T05:25:13;11.82;57.67
65637;DHT22;52327;42.622;23.316;2023-05-03T05:27:38;11.91;57.56
65637;DHT22;52327;42.622;23.316;2023-05-03T05:30:04;11.96;57.20
65637;DHT22;52327;42.622;23.316;2023-05-03T05:32:30;11.91;56.53
65637;DHT22;52327;42.622;23.316;2023-05-03T05:34:56;11.92;56.25
65637;DHT22;52327;42.622;23.316;2023-05-03T05:37:22;11.98;55.86
65637;DHT22;52327;42.622;23.316;2023-05-03T05:39:48;11.98;54.69
65637;DHT22;52327;42.622;23.316;2023-05-03T05:42:13;11.98;55.37
65637;DHT22;52327;42.622;23.316;2023-05-03T05:44:39;12.08;55.35
65637;DHT22;52327;42.622;23.316;2023-05-03T05:47:04;12.11;55.58
65637;DHT22;52327;42.622;23.316;2023-05-03T05:49:30;12.08;56.45
65637;DHT22;52327;42.622;23.316;2023-05-03T05:51:56;12.15;57.04
65637;DHT22;52327;42.622;23.316;2023-05-03T05:54:22;12.19;55.98
65637;DHT22;52327;42.622;23.316;2023-05-03T05:56:47;12.28;55.45
65637;DHT22;52327;42.622;23.316;2023-05-03T05:59:13;12.32;55.43
65637;DHT22;52327;42.622;23.316;2023-05-03T06:01:38;12.42;54.71
65637;DHT22;52327;42.622;23.316;2023-05-03T06:04:09;12.46;54.02
65637;DHT22;52327;42.622;23.316;2023-05-03T06:06:34;12.45;53.56
65637;DHT22;52327;42.622;23.316;2023-05-03T06:09:00;12.50;53.39
65637;DHT22;52327;42.622;23.316;2023-05-03T06:11:26;12.47;52.55
65637;DHT22;52327;42.622;23.316;2023-05-03T06:13:51;12.43;52.77
65637;DHT22;52327;42.622;23.316;2023-05-03T06:16:17;12.55;53.83
65637;DHT22;52327;42.622;23.316;2023-05-03T06:18:42;12.73;53.20
65637;DHT22;52327;42.622;23.316;2023-05-03T06:21:08;12.67;54.72
65637;DHT22;52327;42.622;23.316;2023-05-03T06:23:34;12.64;54.85
65637;DHT22;52327;42.622;23.316;2023-05-03T06:26:02;12.60;56.30
65637;DHT22;52327;42.622;23.316;2023-05-03T06:28:27;12.67;56.53
65637;DHT22;52327;42.622;23.316;2023-05-03T06:30:53;12.81;56.57
65637;DHT22;52327;42.622;23.316;2023-05-03T06:33:18;12.79;55.28
65637;DHT22;52327;42.622;23.316;2023-05-03T06:35:44;12.90;55.19
65637;DHT22;52327;42.622;23.316;2023-05-03T06:38:11;12.91;55.71
65637;DHT22;52327;42.622;23.316;2023-05-03T06:40:37;13.04;54.68
65637;DHT22;52327;42.622;23.316;2023-05-03T06:43:02;12.84;55.63
65637;DHT22;52327;42.622;23.316;2023-05-03T06:45:28;12.73;56.18
65637;DHT22;52327;42.622;23.316;2023-05-03T06:47:56;12.76;55.56
65637;DHT22;52327;42.622;23.316;2023-05-03T06:50:22;12.75;55.19
65637;DHT22;52327;42.622;23.316;2023-05-03T06:52:48;12.77;54.76
65637;DHT22;52327;42.622;23.316;2023-05-03T06:55:14;12.80;55.25
65637;DHT22;52327;42.622;23.316;2023-05-03T06:57:40;12.77;54.45
65637;DHT22;52327;42.622;23.316;2023-05-03T07:00:07;12.68;54.90
65637;DHT22;52327;42.622;23.316;2023-05-03T07:02:33;12.70;54.75
65637;DHT22;52327;42.622;23.316;2023-05-03T07:04:58;12.83;53.75
65637;DHT22;52327;42.622;23.316;2023-05-03T07:07:24;12.96;53.45
65637;DHT22;52327;42.622;23.316;2023-05-03T07:09:49;12.86;53.18
65637;DHT22;52327;42.622;23.316;2023-05-03T07:12:15;12.86;53.69
65637;DHT22;52327;42.622;23.316;2023-05-03T07:14:41;12.91;53.88
65637;DHT22;52327;42.622;23.316;2023-05-03T07:17:08;13.03;53.19
65637;DHT22;52327;42.622;23.316;2023-05-03T07:19:33;13.14;52.52
65637;DHT22;52327;42.622;23.316;2023-05-03T07:21:59;13.12;53.38
65637;DHT22;52327;42.622;23.316;2023-05-03T07:24:24;13.37;52.40
65637;DHT22;52327;42.622;23.316;2023-05-03T07:26:51;13.58;52.06
65637;DHT22;52327;42.622;23.316;2023-05-03T07:29:17;13.76;51.64
65637;DHT22;52327;42.622;23.316;2023-05-03T07:31:42;13.83;52.22
65637;DHT22;52327;42.622;23.316;2023-05-03T07:34:09;14.00;51.81
65637;DHT22;52327;42.622;23.316;2023-05-03T07:36:35;14.06;51.48
65637;DHT22;52327;42.622;23.316;2023-05-03T07:39:00;14.24;51.42
65637;DHT22;52327;42.622;23.316;2023-05-03T07:41:25;14.33;51.02
65637;DHT22;52327;42.622;23.316;2023-05-03T07:43:51;14.23;51.21
65637;DHT22;52327;42.622;23.316;2023-05-03T07:46:16;14.37;50.95
65637;DHT22;52327;42.622;23.316;2023-05-03T07:48:42;14.40;50.05
65637;DHT22;52327;42.622;23.316;2023-05-03T07:51:07;14.41;50.43
65637;DHT22;52327;42.622;23.316;2023-05-03T07:53:33;14.51;50.16
65637;DHT22;52327;42.622;23.316;2023-05-03T07:55:59;14.63;49.93
65637;DHT22;52327;42.622;23.316;2023-05-03T07:58:25;14.71;49.72
65637;DHT22;52327;42.622;23.316;2023-05-03T08:00:51;14.74;50.24
65637;DHT22;52327;42.622;23.316;2023-05-03T08:03:16;14.89;49.98
65637;DHT22;52327;42.622;23.316;2023-05-03T08:05:42;15.16;49.66
65637;DHT22;52327;42.622;23.316;2023-05-03T08:08:08;15.42;49.09
65637;DHT22;52327;42.622;23.316;2023-05-03T08:10:34;15.62;48.77
65637;DHT22;52327;42.622;23.316;2023-05-03T08:13:03;15.74;47.83
65637;DHT22;52327;42.622;23.316;2023-05-03T08:15:30;15.83;48.24
65637;DHT22;52327;42.622;23.316;2023-05-03T08:17:55;15.96;47.68
65637;DHT22;52327;42.622;23.316;2023-05-03T08:20:20;16.07;47.54
65637;DHT22;52327;42.622;23.316;2023-05-03T08:22:46;16.28;47.08
65637;DHT22;52327;42.622;23.316;2023-05-03T08:25:11;16.29;47.35
65637;DHT22;52327;42.622;23.316;2023-05-03T08:27:37;16.40;47.03
65637;DHT22;52327;42.622;23.316;2023-05-03T08:30:03;16.42;46.87
65637;DHT22;52327;42.622;23.316;2023-05-03T08:32:29;16.64;46.72
65637;DHT22;52327;42.622;23.316;2023-05-03T08:34:55;16.73;45.97
65637;DHT22;52327;42.622;23.316;2023-05-03T08:37:21;16.75;46.24
65637;DHT22;52327;42.622;23.316;2023-05-03T08:39:47;16.79;47.05
65637;DHT22;52327;42.622;23.316;2023-05-03T08:42:15;16.72;46.80
65637;DHT22;52327;42.622;23.316;2023-05-03T08:44:47;16.82;47.60
65637;DHT22;52327;42.622;23.316;2023-05-03T08:47:13;16.76;48.21
65637;DHT22;52327;42.622;23.316;2023-05-03T08:49:44;16.80;47.96
65637;DHT22;52327;42.622;23.316;2023-05-03T08:52:17;16.79;46.76
65637;DHT22;52327;42.622;23.316;2023-05-03T08:54:44;16.86;46.84
65637;DHT22;52327;42.622;23.316;2023-05-03T08:57:13;17.02;46.53
65637;DHT22;52327;42.622;23.316;2023-05-03T08:59:48;17.06;46.15
65637;DHT22;52327;42.622;23.316;2023-05-03T09:02:14;17.05;46.71
65637;DHT22;52327;42.622;23.316;2023-05-03T09:04:40;17.24;45.86
65637;DHT22;52327;42.622;23.316;2023-05-03T09:07:09;17.36;46.08
65637;DHT22;52327;42.622;23.316;2023-05-03T09:09:41;17.51;45.34
65637;DHT22;52327;42.622;23.316;2023-05-03T09:14:54;17.84;45.11
65637;DHT22;52327;42.622;23.316;2023-05-03T09:17:25;18.10;44.48
65637;DHT22;52327;42.622;23.316;2023-05-03T09:19:56;18.55;43.50
65637;DHT22;52327;42.622;23.316;2023-05-03T09:22:24;18.73;43.75
65637;DHT22;52327;42.622;23.316;2023-05-03T09:24:57;18.81;42.36
65637;DHT22;52327;42.622;23.316;2023-05-03T09:27:41;18.79;43.35
65637;DHT22;52327;42.622;23.316;2023-05-03T09:30:19;19.01;43.09
65637;DHT22;52327;42.622;23.316;2023-05-03T09:32:56;19.20;43.35
65637;DHT22;52327;42.622;23.316;2023-05-03T09:35:22;19.32;42.40
65637;DHT22;52327;42.622;23.316;2023-05-03T09:37:50;18.80;43.37
65637;DHT22;52327;42.622;23.316;2023-05-03T09:40:19;18.36;45.16
65637;DHT22;52327;42.622;23.316;2023-05-03T09:43:06;18.52;44.32
65637;DHT22;52327;42.622;23.316;2023-05-03T09:45:42;18.42;44.94
65637;DHT22;52327;42.622;23.316;2023-05-03T09:48:10;18.60;44.54
65637;DHT22;52327;42.622;23.316;2023-05-03T09:50:40;18.64;44.71
65637;DHT22;52327;42.622;23.316;2023-05-03T09:53:09;18.77;44.79
65637;DHT22;52327;42.622;23.316;2023-05-03T09:55:53;19.06;43.72
65637;DHT22;52327;42.622;23.316;2023-05-03T09:58:23;19.24;42.69
65637;DHT22;52327;42.622;23.316;2023-05-03T10:01:00;19.31;42.37
65637;DHT22;52327;42.622;23.316;2023-05-03T10:03:36;19.28;41.72
65637;DHT22;52327;42.622;23.316;2023-05-03T10:06:05;19.47;41.99
65637;DHT22;52327;42.622;23.316;2023-05-03T10:11:22;19.75;41.60
65637;DHT22;52327;42.622;23.316;2023-05-03T10:13:48;19.87;41.31
65637;DHT22;52327;42.622;23.316;2023-05-03T10:16:20;19.99;41.75
65637;DHT22;52327;42.622;23.316;2023-05-03T10:18:52;20.10;40.49
65637;DHT22;52327;42.622;23.316;2023-05-03T10:21:41;20.20;40.75
65637;DHT22;52327;42.622;23.316;2023-05-03T10:24:14;19.99;41.57
65637;DHT22;52327;42.622;23.316;2023-05-03T10:26:44;20.06;41.01
65637;DHT22;52327;42.622;23.316;2023-05-03T10:29:46;20.09;40.65
65637;DHT22;52327;42.622;23.316;2023-05-03T10:32:34;20.27;40.76
65637;DHT22;52327;42.622;23.316;2023-05-03T10:37:28;20.80;39.23
65637;DHT22;52327;42.622;23.316;2023-05-03T10:39:53;20.88;39.67
65637;DHT22;52327;42.622;23.316;2023-05-03T10:42:23;20.98;39.07
65637;DHT22;52327;42.622;23.316;2023-05-03T10:44:52;20.98;39.65
65637;DHT22;52327;42.622;23.316;2023-05-03T10:47:19;21.02;39.11
65637;DHT22;52327;42.622;23.316;2023-05-03T10:49:47;20.84;39.86
65637;DHT22;52327;42.622;23.316;2023-05-03T10:55:07;20.45;39.76
65637;DHT22;52327;42.622;23.316;2023-05-03T10:57:34;20.12;40.99
65637;DHT22;52327;42.622;23.316;2023-05-03T11:00:02;20.06;40.98
65637;DHT22;52327;42.622;23.316;2023-05-03T11:02:37;20.06;41.45
65637;DHT22;52327;42.622;23.316;2023-05-03T11:05:07;20.16;41.06
65637;DHT22;52327;42.622;23.316;2023-05-03T11:07:34;20.29;41.13
65637;DHT22;52327;42.622;23.316;2023-05-03T11:10:00;20.40;40.97
65637;DHT22;52327;42.622;23.316;2023-05-03T11:12:40;20.61;40.93
65637;DHT22;52327;42.622;23.316;2023-05-03T11:15:06;20.84;41.00
65637;DHT22;52327;42.622;23.316;2023-05-03T11:17:31;20.85;40.87
65637;DHT22;52327;42.622;23.316;2023-05-03T11:19:57;20.73;40.51
65637;DHT22;52327;42.622;23.316;2023-05-03T11:22:23;20.64;40.66
65637;DHT22;52327;42.622;23.316;2023-05-03T11:24:48;20.61;40.79
65637;DHT22;52327;42.622;23.316;2023-05-03T11:27:22;20.34;41.41
65637;DHT22;52327;42.622;23.316;2023-05-03T11:29:48;20.63;41.27
65637;DHT22;52327;42.622;23.316;2023-05-03T11:32:13;20.68;41.34
65637;DHT22;52327;42.622;23.316;2023-05-03T11:34:40;20.75;41.18
65637;DHT22;52327;42.622;23.316;2023-05-03T11:37:07;21.50;39.60
65637;DHT22;52327;42.622;23.316;2023-05-03T11:39:33;22.00;39.16
65637;DHT22;52327;42.622;23.316;2023-05-03T11:42:04;22.18;38.90
65637;DHT22;52327;42.622;23.316;2023-05-03T11:44:29;22.52;38.30
65637;DHT22;52327;42.622;23.316;2023-05-03T11:46:55;22.76;37.84
65637;DHT22;52327;42.622;23.316;2023-05-03T11:49:22;22.89;37.29
65637;DHT22;52327;42.622;23.316;2023-05-03T11:51:49;23.20;36.74
65637;DHT22;52327;42.622;23.316;2023-05-03T11:54:16;23.12;37.22
65637;DHT22;52327;42.622;23.316;2023-05-03T11:56:41;23.70;36.10
65637;DHT22;52327;42.622;23.316;2023-05-03T11:59:07;24.91;34.16
65637;DHT22;52327;42.622;23.316;2023-05-03T12:01:32;28.36;29.50
65637;DHT22;52327;42.622;23.316;2023-05-03T12:04:00;30.88;26.24
65637;DHT22;52327;42.622;23.316;2023-05-03T12:06:27;29.84;27.01
65637;DHT22;52327;42.622;23.316;2023-05-03T12:08:54;27.90;29.68
65637;DHT22;52327;42.622;23.316;2023-05-03T12:11:20;26.79;31.04
65637;DHT22;52327;42.622;23.316;2023-05-03T12:13:58;25.80;32.26
65637;DHT22;52327;42.622;23.316;2023-05-03T12:16:24;24.77;33.27
65637;DHT22;52327;42.622;23.316;2023-05-03T12:18:54;24.00;34.93
65637;DHT22;52327;42.622;23.316;2023-05-03T12:21:43;23.19;36.25
65637;DHT22;52327;42.622;23.316;2023-05-03T12:24:08;22.51;36.97
65637;DHT22;52327;42.622;23.316;2023-05-03T12:26:34;21.98;38.32
65637;DHT22;52327;42.622;23.316;2023-05-03T12:28:59;21.52;39.39
65637;DHT22;52327;42.622;23.316;2023-05-03T12:31:26;21.08;40.13
65637;DHT22;52327;42.622;23.316;2023-05-03T12:33:52;20.77;41.00
65637;DHT22;52327;42.622;23.316;2023-05-03T12:36:18;20.33;41.89
65637;DHT22;52327;42.622;23.316;2023-05-03T12:38:43;19.86;42.88
65637;DHT22;52327;42.622;23.316;2023-05-03T12:41:09;19.45;43.59
65637;DHT22;52327;42.622;23.316;2023-05-03T12:43:36;19.21;44.03
65637;DHT22;52327;42.622;23.316;2023-05-03T12:46:01;19.08;44.61
65637;DHT22;52327;42.622;23.316;2023-05-03T12:48:29;18.96;45.25
65637;DHT22;52327;42.622;23.316;2023-05-03T12:50:54;18.71;45.71
65637;DHT22;52327;42.622;23.316;2023-05-03T12:53:20;18.42;46.62
65637;DHT22;52327;42.622;23.316;2023-05-03T12:55:46;18.30;47.09
65637;DHT22;52327;42.622;23.316;2023-05-03T12:58:12;18.13;48.72
65637;DHT22;52327;42.622;23.316;2023-05-03T13:00:37;17.79;51.93
65637;DHT22;52327;42.622;23.316;2023-05-03T13:03:03;17.55;52.83
65637;DHT22;52327;42.622;23.316;2023-05-03T13:05:29;17.40;52.59
65637;DHT22;52327;42.622;23.316;2023-05-03T13:07:55;17.24;53.41
65637;DHT22;52327;42.622;23.316;2023-05-03T13:10:21;17.02;54.69
65637;DHT22;52327;42.622;23.316;2023-05-03T13:12:47;16.68;55.39
65637;DHT22;52327;42.622;23.316;2023-05-03T13:15:13;16.20;58.82
65637;DHT22;52327;42.622;23.316;2023-05-03T13:17:38;15.87;61.58
65637;DHT22;52327;42.622;23.316;2023-05-03T13:20:05;15.76;60.92
65637;DHT22;52327;42.622;23.316;2023-05-03T13:22:47;15.60;61.59
65637;DHT22;52327;42.622;23.316;2023-05-03T13:25:13;15.50;62.63
65637;DHT22;52327;42.622;23.316;2023-05-03T13:40:54;14.31;68.79
65637;DHT22;52327;42.622;23.316;2023-05-03T13:43:40;14.05;72.65
65637;DHT22;52327;42.622;23.316;2023-05-03T13:46:44;13.85;74.55
65637;DHT22;52327;42.622;23.316;2023-05-03T13:49:15;13.65;75.77
65637;DHT22;52327;42.622;23.316;2023-05-03T13:52:09;13.55;76.88
65637;DHT22;52327;42.622;23.316;2023-05-03T13:54:50;13.35;77.03
65637;DHT22;52327;42.622;23.316;2023-05-03T13:57:26;13.27;77.22
65637;DHT22;52327;42.622;23.316;2023-05-03T13:59:52;12.97;76.63
65637;DHT22;52327;42.622;23.316;2023-05-03T14:02:17;12.83;79.29
65637;DHT22;52327;42.622;23.316;2023-05-03T14:04:46;12.63;79.86
65637;DHT22;52327;42.622;23.316;2023-05-03T14:07:11;12.66;79.43
65637;DHT22;52327;42.622;23.316;2023-05-03T14:09:37;12.67;80.64
65637;DHT22;52327;42.622;23.316;2023-05-03T14:12:05;12.72;80.16
65637;DHT22;52327;42.622;23.316;2023-05-03T14:14:31;12.81;81.79
65637;DHT22;52327;42.622;23.316;2023-05-03T14:16:56;13.03;81.86
65637;DHT22;52327;42.622;23.316;2023-05-03T14:19:22;13.24;82.44
65637;DHT22;52327;42.622;23.316;2023-05-03T14:21:47;13.44;79.43
65637;DHT22;52327;42.622;23.316;2023-05-03T14:24:15;13.39;82.45
65637;DHT22;52327;42.622;23.316;2023-05-03T14:26:41;13.39;82.31
65637;DHT22;52327;42.622;23.316;2023-05-03T14:29:06;13.44;82.74
65637;DHT22;52327;42.622;23.316;2023-05-03T14:31:32;13.37;80.95
65637;DHT22;52327;42.622;23.316;2023-05-03T14:33:58;13.28;81.84
65637;DHT22;52327;42.622;23.316;2023-05-03T14:36:25;13.17;81.64
65637;DHT22;52327;42.622;23.316;2023-05-03T14:38:55;13.10;81.40
65637;DHT22;52327;42.622;23.316;2023-05-03T14:41:21;13.06;78.80
65637;DHT22;52327;42.622;23.316;2023-05-03T14:43:46;12.86;79.90
65637;DHT22;52327;42.622;23.316;2023-05-03T14:46:11;12.76;79.20
65637;DHT22;52327;42.622;23.316;2023-05-03T14:48:37;12.60;81.78
65637;DHT22;52327;42.622;23.316;2023-05-03T14:51:02;12.50;83.96
65637;DHT22;52327;42.622;23.316;2023-05-03T14:53:28;12.40;83.51
65637;DHT22;52327;42.622;23.316;2023-05-03T14:55:53;12.37;85.05
65637;DHT22;52327;42.622;23.316;2023-05-03T14:58:18;12.36;84.92
65637;DHT22;52327;42.622;23.316;2023-05-03T15:00:44;12.29;81.32
65637;DHT22;52327;42.622;23.316;2023-05-03T15:03:10;12.21;84.73
65637;DHT22;52327;42.622;23.316;2023-05-03T15:05:48;12.21;85.47
65637;DHT22;52327;42.622;23.316;2023-05-03T15:08:16;12.16;83.69
65637;DHT22;52327;42.622;23.316;2023-05-03T15:10:42;12.11;83.46
65637;DHT22;52327;42.622;23.316;2023-05-03T15:13:09;12.08;82.10
65637;DHT22;52327;42.622;23.316;2023-05-03T15:15:36;12.05;83.25
65637;DHT22;52327;42.622;23.316;2023-05-03T15:18:01;12.04;85.09
65637;DHT22;52327;42.622;23.316;2023-05-03T15:20:27;12.11;85.48
65637;DHT22;52327;42.622;23.316;2023-05-03T15:22:52;12.09;84.69
65637;DHT22;52327;42.622;23.316;2023-05-03T15:25:18;12.11;84.73
65637;DHT22;52327;42.622;23.316;2023-05-03T15:27:43;12.12;84.07
65637;DHT22;52327;42.622;23.316;2023-05-03T15:30:09;12.22;81.27
65637;DHT22;52327;42.622;23.316;2023-05-03T15:32:36;12.19;79.99
65637;DHT22;52327;42.622;23.316;2023-05-03T15:35:01;12.12;80.58
65637;DHT22;52327;42.622;23.316;2023-05-03T15:37:34;12.12;82.79
65637;DHT22;52327;42.622;23.316;2023-05-03T15:40:05;12.14;81.31
65637;DHT22;52327;42.622;23.316;2023-05-03T15:42:33;12.16;82.26
65637;DHT22;52327;42.622;23.316;2023-05-03T15:44:59;12.25;81.36
65637;DHT22;52327;42.622;23.316;2023-05-03T15:47:24;12.43;79.74
65637;DHT22;52327;42.622;23.316;2023-05-03T15:49:50;12.52;80.05
65637;DHT22;52327;42.622;23.316;2023-05-03T15:52:16;12.60;76.70
65637;DHT22;52327;42.622;23.316;2023-05-03T15:54:41;12.56;78.08
65637;DHT22;52327;42.622;23.316;2023-05-03T15:57:07;12.50;77.14
65637;DHT22;52327;42.622;23.316;2023-05-03T15:59:32;12.37;76.01
65637;DHT22;52327;42.622;23.316;2023-05-03T16:01:57;12.40;75.36
65637;DHT22;52327;42.622;23.316;2023-05-03T16:04:23;12.35;77.64